sensor_id;sensor_type;location;lat;lon;timestamp;pressure;altitude;pressure_sealevel;temperature;humidity
49044;BME280;34860;48.066;14.124;2023-07-29T00:02:06;96265.38;;;18.74;60.46
49044;BME280;34860;48.066;14.124;2023-07-29T00:04:55;96274.09;;;18.76;60.65
49044;BME280;34860;48.066;14.124;2023-07-29T00:07:43;96268.97;;;18.74;60.41
49044;BME280;34860;48.066;14.124;2023-07-29T00:10:33;96262.56;;;18.74;60.42
49044;BME280;34860;48.066;14.124;2023-07-29T00:13:23;96280.72;;;18.73;60.54
49044;BME280;34860;48.066;14.124;2023-07-29T00:16:11;96278.69;;;18.73;60.58
49044;BME280;34860;48.066;14.124;2023-07-29T00:18:59;96284.31;;;18.73;60.92
49044;BME280;34860;48.066;14.124;2023-07-29T00:21:49;96284.31;;;18.73;60.69
49044;BME280;34860;48.066;14.124;2023-07-29T00:24:37;96285.84;;;18.74;60.84
49044;BME280;34860;48.066;14.124;2023-07-29T00:27:25;96283.28;;;18.76;60.59
49044;BME280;34860;48.066;14.124;2023-07-29T00:30:14;96275.63;;;18.77;60.78
49044;BME280;34860;48.066;14.124;2023-07-29T00:33:02;96275.63;;;18.77;61.14
49044;BME280;34860;48.066;14.124;2023-07-29T00:35:50;96263.59;;;18.76;61.08
49044;BME280;34860;48.066;14.124;2023-07-29T00:38:40;96268.72;;;18.78;60.96
49044;BME280;34860;48.066;14.124;2023-07-29T00:41:28;96262.31;;;18.77;60.99
49044;BME280;34860;48.066;14.124;2023-07-29T00:44:16;96267.94;;;18.77;61.09
49044;BME280;34860;48.066;14.124;2023-07-29T00:47:05;96266.41;;;18.76;61.24
49044;BME280;34860;48.066;14.124;2023-07-29T00:49:53;96270.75;;;18.77;61.22
49044;BME280;34860;48.066;14.124;2023-07-29T00:52:41;96272.81;;;18.77;61.23
49044;BME280;34860;48.066;14.124;2023-07-29T00:55:31;96261.81;;;18.79;61.42
49044;BME280;34860;48.066;14.124;2023-07-29T00:58:19;96260.56;;;18.80;61.48
49044;BME280;34860;48.066;14.124;2023-07-29T01:01:07;96264.91;;;18.81;61.39
49044;BME280;34860;48.066;14.124;2023-07-29T01:03:56;96264.41;;;18.82;61.30
49044;BME280;34860;48.066;14.124;2023-07-29T01:06:50;96265.94;;;18.83;61.50
49044;BME280;34860;48.066;14.124;2023-07-29T01:09:47;96263.91;;;18.84;61.32
49044;BME280;34860;48.066;14.124;2023-07-29T01:12:46;96270.34;;;18.84;61.49
49044;BME280;34860;48.066;14.124;2023-07-29T01:15:43;96274.41;;;18.83;61.24
49044;BME280;34860;48.066;14.124;2023-07-29T01:18:36;96270.34;;;18.84;61.24
49044;BME280;34860;48.066;14.124;2023-07-29T01:21:27;96279.25;;;18.83;61.41
49044;BME280;34860;48.066;14.124;2023-07-29T01:24:16;96283.63;;;18.84;61.59
49044;BME280;34860;48.066;14.124;2023-07-29T01:27:04;96292.06;;;18.84;61.41
49044;BME280;34860;48.066;14.124;2023-07-29T01:29:54;96279.56;;;18.85;61.78
49044;BME280;34860;48.066;14.124;2023-07-29T01:32:48;96284.09;;;18.82;61.53
49044;BME280;34860;48.066;14.124;2023-07-29T01:35:42;96297.41;;;18.82;61.71
49044;BME280;34860;48.066;14.124;2023-07-29T01:38:33;96294.59;;;18.82;61.64
49044;BME280;34860;48.066;14.124;2023-07-29T01:41:24;96275.41;;;18.80;61.90
49044;BME280;34860;48.066;14.124;2023-07-29T01:44:13;96281.28;;;18.82;61.87
49044;BME280;34860;48.066;14.124;2023-07-29T01:47:02;96269.00;;;18.80;61.75
49044;BME280;34860;48.066;14.124;2023-07-29T01:49:50;96272.59;;;18.80;61.88
49044;BME280;34860;48.066;14.124;2023-07-29T01:52:38;96281.03;;;18.80;61.93
49044;BME280;34860;48.066;14.124;2023-07-29T01:55:26;96278.72;;;18.79;61.94
49044;BME280;34860;48.066;14.124;2023-07-29T01:58:16;96274.34;;;18.78;61.94
49044;BME280;34860;48.066;14.124;2023-07-29T02:01:06;96283.59;;;18.78;61.84
49044;BME280;34860;48.066;14.124;2023-07-29T02:03:54;96279.97;;;18.78;61.90
49044;BME280;34860;48.066;14.124;2023-07-29T02:06:43;96276.91;;;18.76;62.03
49044;BME280;34860;48.066;14.124;2023-07-29T02:09:31;96288.16;;;18.76;61.86
49044;BME280;34860;48.066;14.124;2023-07-29T02:12:19;96277.66;;;18.76;62.02
49044;BME280;34860;48.066;14.124;2023-07-29T02:15:21;96280.22;;;18.74;61.93
49044;BME280;34860;48.066;14.124;2023-07-29T02:18:11;96287.91;;;18.74;62.20
49044;BME280;34860;48.066;14.124;2023-07-29T02:21:00;96276.63;;;18.74;62.15
49044;BME280;34860;48.066;14.124;2023-07-29T02:23:48;96274.31;;;18.72;62.12
49044;BME280;34860;48.066;14.124;2023-07-29T02:26:36;96276.38;;;18.72;62.03
49044;BME280;34860;48.066;14.124;2023-07-29T02:29:25;96277.38;;;18.68;62.10
49044;BME280;34860;48.066;14.124;2023-07-29T02:32:14;96283.00;;;18.68;62.28
49044;BME280;34860;48.066;14.124;2023-07-29T02:35:02;96274.28;;;18.66;62.11
49044;BME280;34860;48.066;14.124;2023-07-29T02:37:51;96275.56;;;18.65;62.36
49044;BME280;34860;48.066;14.124;2023-07-29T02:40:41;96274.78;;;18.65;62.31
49044;BME280;34860;48.066;14.124;2023-07-29T02:43:29;96272.47;;;18.63;62.44
49044;BME280;34860;48.066;14.124;2023-07-29T02:46:17;96277.31;;;18.63;62.28
49044;BME280;34860;48.066;14.124;2023-07-29T02:49:07;96272.19;;;18.61;62.24
49044;BME280;34860;48.066;14.124;2023-07-29T02:51:55;96275.50;;;18.60;62.03
49044;BME280;34860;48.066;14.124;2023-07-29T02:54:43;96286.50;;;18.58;62.36
49044;BME280;34860;48.066;14.124;2023-07-29T02:57:31;96280.63;;;18.56;62.34
49044;BME280;34860;48.066;14.124;2023-07-29T03:00:19;96280.31;;;18.54;62.44
49044;BME280;34860;48.066;14.124;2023-07-29T03:03:07;96264.72;;;18.52;62.30
49044;BME280;34860;48.066;14.124;2023-07-29T03:06:02;96266.75;;;18.52;62.27
49044;BME280;34860;48.066;14.124;2023-07-29T03:08:50;96268.53;;;18.49;62.27
49044;BME280;34860;48.066;14.124;2023-07-29T03:11:38;96270.31;;;18.47;62.29
49044;BME280;34860;48.066;14.124;2023-07-29T03:14:26;96282.06;;;18.45;62.51
49044;BME280;34860;48.066;14.124;2023-07-29T03:17:15;96288.19;;;18.44;62.58
49044;BME280;34860;48.066;14.124;2023-07-29T03:20:04;96283.06;;;18.42;62.37
49044;BME280;34860;48.066;14.124;2023-07-29T03:22:54;96279.47;;;18.42;62.44
49044;BME280;34860;48.066;14.124;2023-07-29T03:25:48;96277.94;;;18.41;62.60
49044;BME280;34860;48.066;14.124;2023-07-29T03:28:39;96278.41;;;18.39;62.57
49044;BME280;34860;48.066;14.124;2023-07-29T03:31:27;96278.91;;;18.38;62.63
49044;BME280;34860;48.066;14.124;2023-07-29T03:34:15;96280.97;;;18.37;62.61
49044;BME280;34860;48.066;14.124;2023-07-29T03:37:06;96283.03;;;18.37;62.79
49044;BME280;34860;48.066;14.124;2023-07-29T03:39:55;96278.66;;;18.36;62.59
49044;BME280;34860;48.066;14.124;2023-07-29T03:42:43;96288.34;;;18.34;62.61
49044;BME280;34860;48.066;14.124;2023-07-29T03:45:31;96294.78;;;18.35;62.71
49044;BME280;34860;48.066;14.124;2023-07-29T03:48:20;96296.28;;;18.36;62.60
49044;BME280;34860;48.066;14.124;2023-07-29T03:51:08;96294.28;;;18.37;62.60
49044;BME280;34860;48.066;14.124;2023-07-29T03:53:56;96301.44;;;18.38;62.51
49044;BME280;34860;48.066;14.124;2023-07-29T03:56:45;96306.56;;;18.39;62.49
49044;BME280;34860;48.066;14.124;2023-07-29T03:59:33;96314.50;;;18.41;62.39
49044;BME280;34860;48.066;14.124;2023-07-29T04:02:21;96314.50;;;18.41;62.25
49044;BME280;34860;48.066;14.124;2023-07-29T04:05:09;96319.63;;;18.42;62.37
49044;BME280;34860;48.066;14.124;2023-07-29T04:07:57;96319.13;;;18.44;62.22
49044;BME280;34860;48.066;14.124;2023-07-29T04:10:45;96320.41;;;18.43;62.36
49044;BME280;34860;48.066;14.124;2023-07-29T04:13:35;96324.75;;;18.44;62.23
49044;BME280;34860;48.066;14.124;2023-07-29T04:16:24;96326.03;;;18.43;62.16
49044;BME280;34860;48.066;14.124;2023-07-29T04:19:12;96319.63;;;18.42;62.28
49044;BME280;34860;48.066;14.124;2023-07-29T04:22:01;96324.50;;;18.42;62.29
49044;BME280;34860;48.066;14.124;2023-07-29T04:24:49;96318.59;;;18.40;62.55
49044;BME280;34860;48.066;14.124;2023-07-29T04:27:37;96329.06;;;18.39;62.40
49044;BME280;34860;48.066;14.124;2023-07-29T04:30:26;96321.13;;;18.38;62.69
49044;BME280;34860;48.066;14.124;2023-07-29T04:33:14;96332.88;;;18.36;62.55
49044;BME280;34860;48.066;14.124;2023-07-29T04:36:03;96329.28;;;18.36;62.58
49044;BME280;34860;48.066;14.124;2023-07-29T04:38:51;96338.50;;;18.36;62.83
49044;BME280;34860;48.066;14.124;2023-07-29T04:41:39;96330.84;;;18.37;62.62
49044;BME280;34860;48.066;14.124;2023-07-29T04:44:27;96338.00;;;18.38;62.93
49044;BME280;34860;48.066;14.124;2023-07-29T04:47:17;96325.22;;;18.37;62.74
49044;BME280;34860;48.066;14.124;2023-07-29T04:50:06;96332.38;;;18.38;62.76
49044;BME280;34860;48.066;14.124;2023-07-29T04:52:54;96335.19;;;18.38;62.64
49044;BME280;34860;48.066;14.124;2023-07-29T04:55:42;96340.81;;;18.38;62.87
49044;BME280;34860;48.066;14.124;2023-07-29T04:58:30;96337.25;;;18.37;62.84
49044;BME280;34860;48.066;14.124;2023-07-29T05:01:21;96335.00;;;18.41;62.67
49044;BME280;34860;48.066;14.124;2023-07-29T05:04:12;96328.06;;;18.42;62.89
49044;BME280;34860;48.066;14.124;2023-07-29T05:07:00;96335.53;;;18.45;62.84
49044;BME280;34860;48.066;14.124;2023-07-29T05:09:48;96331.97;;;18.50;62.72
49044;BME280;34860;48.066;14.124;2023-07-29T05:12:36;96335.59;;;18.57;62.66
49044;BME280;34860;48.066;14.124;2023-07-29T05:15:24;96336.69;;;18.65;62.44
49044;BME280;34860;48.066;14.124;2023-07-29T05:18:12;96333.69;;;18.74;62.57
49044;BME280;34860;48.066;14.124;2023-07-29T05:21:02;96331.78;;;18.86;62.41
49044;BME280;34860;48.066;14.124;2023-07-29T05:23:50;96328.53;;;18.99;62.31
49044;BME280;34860;48.066;14.124;2023-07-29T05:26:38;96315.28;;;19.11;62.07
49044;BME280;34860;48.066;14.124;2023-07-29T05:29:26;96322.78;;;19.25;61.90
49044;BME280;34860;48.066;14.124;2023-07-29T05:32:14;96331.31;;;19.36;61.76
49044;BME280;34860;48.066;14.124;2023-07-29T05:35:02;96339.31;;;19.49;61.64
49044;BME280;34860;48.066;14.124;2023-07-29T05:37:52;96324.25;;;19.58;61.66
49044;BME280;34860;48.066;14.124;2023-07-29T05:40:47;96325.28;;;19.66;61.65
49044;BME280;34860;48.066;14.124;2023-07-29T05:43:35;96330.72;;;19.75;61.82
49044;BME280;34860;48.066;14.124;2023-07-29T05:46:23;96326.66;;;19.82;61.91
49044;BME280;34860;48.066;14.124;2023-07-29T05:49:11;96335.41;;;19.90;61.88
49044;BME280;34860;48.066;14.124;2023-07-29T05:52:01;96326.94;;;19.95;62.11
49044;BME280;34860;48.066;14.124;2023-07-29T05:54:50;96325.16;;;20.04;62.15
49044;BME280;34860;48.066;14.124;2023-07-29T05:57:38;96329.56;;;20.10;62.17
49044;BME280;34860;48.066;14.124;2023-07-29T06:00:28;96333.91;;;20.17;62.24
49044;BME280;34860;48.066;14.124;2023-07-29T06:03:18;96322.91;;;20.25;62.23
49044;BME280;34860;48.066;14.124;2023-07-29T06:06:06;96335.47;;;20.29;62.27
49044;BME280;34860;48.066;14.124;2023-07-29T06:08:54;96331.91;;;20.35;62.11
49044;BME280;34860;48.066;14.124;2023-07-29T06:11:44;96317.00;;;20.40;62.33
49044;BME280;34860;48.066;14.124;2023-07-29T06:14:32;96312.41;;;20.42;62.26
49044;BME280;34860;48.066;14.124;2023-07-29T06:17:20;96328.03;;;20.43;62.21
49044;BME280;34860;48.066;14.124;2023-07-29T06:20:09;96311.34;;;20.45;62.17
49044;BME280;34860;48.066;14.124;2023-07-29T06:22:57;96306.75;;;20.48;62.24
49044;BME280;34860;48.066;14.124;2023-07-29T06:25:46;96307.50;;;20.48;62.04
49044;BME280;34860;48.066;14.124;2023-07-29T06:28:35;96300.59;;;20.49;62.08
49044;BME280;34860;48.066;14.124;2023-07-29T06:31:23;96293.69;;;20.50;62.10
49044;BME280;34860;48.066;14.124;2023-07-29T06:34:11;96308.28;;;20.55;62.20
49044;BME280;34860;48.066;14.124;2023-07-29T06:36:59;96304.19;;;20.56;62.15
49044;BME280;34860;48.066;14.124;2023-07-29T06:39:47;96307.00;;;20.56;62.07
49044;BME280;34860;48.066;14.124;2023-07-29T06:42:35;96308.81;;;20.59;61.97
49044;BME280;34860;48.066;14.124;2023-07-29T06:45:26;96305.47;;;20.60;61.90
49044;BME280;34860;48.066;14.124;2023-07-29T06:48:14;96307.78;;;20.62;61.92
49044;BME280;34860;48.066;14.124;2023-07-29T06:51:02;96311.13;;;20.66;61.89
49044;BME280;34860;48.066;14.124;2023-07-29T06:56:37;96307.03;;;20.73;61.72
49044;BME280;34860;48.066;14.124;2023-07-29T06:59:26;96306.78;;;20.76;61.53
49044;BME280;34860;48.066;14.124;2023-07-29T07:02:15;96290.84;;;20.79;61.52
49044;BME280;34860;48.066;14.124;2023-07-29T07:05:03;96298.28;;;20.82;61.43
49044;BME280;34860;48.066;14.124;2023-07-29T07:07:51;96296.50;;;20.84;61.45
49044;BME280;34860;48.066;14.124;2023-07-29T07:10:39;96299.03;;;20.88;61.44
49044;BME280;34860;48.066;14.124;2023-07-29T07:13:27;96293.91;;;20.92;61.27
49044;BME280;34860;48.066;14.124;2023-07-29T07:16:15;96294.41;;;20.96;61.17
49044;BME280;34860;48.066;14.124;2023-07-29T07:19:05;96299.81;;;21.00;61.15
49044;BME280;34860;48.066;14.124;2023-07-29T07:21:53;96293.13;;;21.03;61.17
49044;BME280;34860;48.066;14.124;2023-07-29T07:24:41;96290.03;;;21.07;61.39
49044;BME280;34860;48.066;14.124;2023-07-29T07:27:29;96288.22;;;21.15;61.15
49044;BME280;34860;48.066;14.124;2023-07-29T07:30:17;96275.34;;;21.19;60.93
49044;BME280;34860;48.066;14.124;2023-07-29T07:33:05;96283.03;;;21.25;60.81
49044;BME280;34860;48.066;14.124;2023-07-29T07:35:54;96271.72;;;21.30;60.75
49044;BME280;34860;48.066;14.124;2023-07-29T07:38:42;96282.47;;;21.37;60.61
49044;BME280;34860;48.066;14.124;2023-07-29T07:41:30;96277.56;;;21.44;60.63
49044;BME280;34860;48.066;14.124;2023-07-29T07:44:18;96279.38;;;21.47;60.70
49044;BME280;34860;48.066;14.124;2023-07-29T07:47:06;96269.88;;;21.50;60.69
49044;BME280;34860;48.066;14.124;2023-07-29T07:49:54;96278.06;;;21.53;60.65
49044;BME280;34860;48.066;14.124;2023-07-29T07:52:44;96272.94;;;21.57;60.76
49044;BME280;34860;48.066;14.124;2023-07-29T07:55:32;96278.31;;;21.61;60.71
49044;BME280;34860;48.066;14.124;2023-07-29T07:58:20;96269.25;;;21.68;60.58
49044;BME280;34860;48.066;14.124;2023-07-29T08:01:09;96276.44;;;21.75;60.59
49044;BME280;34860;48.066;14.124;2023-07-29T08:03:57;96276.91;;;21.79;60.36
49044;BME280;34860;48.066;14.124;2023-07-29T08:06:45;96267.88;;;21.86;60.43
49044;BME280;34860;48.066;14.124;2023-07-29T08:09:35;96265.00;;;21.92;60.30
49044;BME280;34860;48.066;14.124;2023-07-29T08:12:23;96257.03;;;21.96;60.26
49044;BME280;34860;48.066;14.124;2023-07-29T08:15:11;96254.66;;;22.00;60.27
49044;BME280;34860;48.066;14.124;2023-07-29T08:17:59;96265.44;;;22.07;60.20
49044;BME280;34860;48.066;14.124;2023-07-29T08:20:53;96262.59;;;22.13;60.23
49044;BME280;34860;48.066;14.124;2023-07-29T08:23:44;96261.25;;;22.20;60.05
49044;BME280;34860;48.066;14.124;2023-07-29T08:26:34;96259.66;;;22.24;60.33
49044;BME280;34860;48.066;14.124;2023-07-29T08:29:22;96256.81;;;22.30;60.30
49044;BME280;34860;48.066;14.124;2023-07-29T08:32:10;96257.53;;;22.36;60.33
49044;BME280;34860;48.066;14.124;2023-07-29T08:34:57;96259.28;;;22.45;60.27
49044;BME280;34860;48.066;14.124;2023-07-29T08:37:45;96247.66;;;22.48;60.32
49044;BME280;34860;48.066;14.124;2023-07-29T08:40:35;96257.63;;;22.55;60.31
49044;BME280;34860;48.066;14.124;2023-07-29T08:43:29;96243.97;;;22.59;60.42
49044;BME280;34860;48.066;14.124;2023-07-29T08:46:21;96249.56;;;22.65;60.45
49044;BME280;34860;48.066;14.124;2023-07-29T08:49:11;96245.91;;;22.70;60.38
49044;BME280;34860;48.066;14.124;2023-07-29T08:52:01;96250.22;;;22.77;60.32
49044;BME280;34860;48.066;14.124;2023-07-29T08:54:49;96254.53;;;22.83;60.31
49044;BME280;34860;48.066;14.124;2023-07-29T08:57:39;96245.97;;;22.89;60.38
49044;BME280;34860;48.066;14.124;2023-07-29T09:00:28;96242.31;;;22.94;60.13
49044;BME280;34860;48.066;14.124;2023-07-29T09:03:17;96249.22;;;22.99;60.30
49044;BME280;34860;48.066;14.124;2023-07-29T09:06:05;96248.94;;;23.02;60.17
49044;BME280;34860;48.066;14.124;2023-07-29T09:08:54;96245.31;;;23.08;60.15
49044;BME280;34860;48.066;14.124;2023-07-29T09:11:43;96248.84;;;23.14;60.10
49044;BME280;34860;48.066;14.124;2023-07-29T09:14:31;96250.84;;;23.19;59.88
49044;BME280;34860;48.066;14.124;2023-07-29T09:17:20;96238.13;;;23.26;59.66
49044;BME280;34860;48.066;14.124;2023-07-29T09:20:10;96248.09;;;23.32;59.75
49044;BME280;34860;48.066;14.124;2023-07-29T09:22:58;96250.03;;;23.43;59.38
49044;BME280;34860;48.066;14.124;2023-07-29T09:25:47;96262.09;;;23.49;59.13
49044;BME280;34860;48.066;14.124;2023-07-29T09:28:37;96256.56;;;23.57;59.16
49044;BME280;34860;48.066;14.124;2023-07-29T09:31:26;96270.91;;;23.65;59.08
49044;BME280;34860;48.066;14.124;2023-07-29T09:34:16;96284.16;;;23.75;58.78
49044;BME280;34860;48.066;14.124;2023-07-29T09:37:05;96295.94;;;23.85;58.76
49044;BME280;34860;48.066;14.124;2023-07-29T09:39:53;96312.91;;;23.91;58.56
49044;BME280;34860;48.066;14.124;2023-07-29T09:42:47;96309.22;;;23.96;58.44
49044;BME280;34860;48.066;14.124;2023-07-29T09:45:36;96307.06;;;24.02;58.25
49044;BME280;34860;48.066;14.124;2023-07-29T09:48:25;96318.91;;;24.06;58.08
49044;BME280;34860;48.066;14.124;2023-07-29T09:51:15;96311.91;;;24.07;58.26
49044;BME280;34860;48.066;14.124;2023-07-29T09:54:03;96323.56;;;24.04;58.21
49044;BME280;34860;48.066;14.124;2023-07-29T09:56:51;96317.19;;;23.98;57.96
49044;BME280;34860;48.066;14.124;2023-07-29T09:59:39;96315.97;;;23.93;58.24
49044;BME280;34860;48.066;14.124;2023-07-29T10:02:28;96315.81;;;23.85;58.62
49044;BME280;34860;48.066;14.124;2023-07-29T10:05:17;96318.69;;;23.80;58.64
49044;BME280;34860;48.066;14.124;2023-07-29T10:08:07;96308.47;;;23.71;59.06
49044;BME280;34860;48.066;14.124;2023-07-29T10:10:55;96309.09;;;23.64;58.88
49044;BME280;34860;48.066;14.124;2023-07-29T10:13:45;96315.06;;;23.60;59.13
49044;BME280;34860;48.066;14.124;2023-07-29T10:16:42;96315.66;;;23.53;59.39
49044;BME280;34860;48.066;14.124;2023-07-29T10:19:32;96319.56;;;23.50;59.27
49044;BME280;34860;48.066;14.124;2023-07-29T10:22:21;96319.34;;;23.48;59.15
49044;BME280;34860;48.066;14.124;2023-07-29T10:25:17;96316.50;;;23.48;59.21
49044;BME280;34860;48.066;14.124;2023-07-29T10:28:07;96322.94;;;23.48;59.03
49044;BME280;34860;48.066;14.124;2023-07-29T10:30:56;96324.47;;;23.49;58.96
49044;BME280;34860;48.066;14.124;2023-07-29T10:33:45;96332.22;;;23.49;58.84
49044;BME280;34860;48.066;14.124;2023-07-29T10:36:33;96320.88;;;23.49;58.81
49044;BME280;34860;48.066;14.124;2023-07-29T10:39:23;96318.03;;;23.49;58.93
49044;BME280;34860;48.066;14.124;2023-07-29T10:42:13;96322.41;;;23.50;58.90
49044;BME280;34860;48.066;14.124;2023-07-29T10:45:17;96322.41;;;23.50;58.94
49044;BME280;34860;48.066;14.124;2023-07-29T10:48:06;96323.41;;;23.52;58.50
49044;BME280;34860;48.066;14.124;2023-07-29T10:51:22;96327.78;;;23.53;58.69
49044;BME280;34860;48.066;14.124;2023-07-29T10:54:11;96320.56;;;23.52;58.63
49044;BME280;34860;48.066;14.124;2023-07-29T10:57:00;96326.78;;;23.51;58.61
49044;BME280;34860;48.066;14.124;2023-07-29T10:59:55;96320.34;;;23.50;58.87
49044;BME280;34860;48.066;14.124;2023-07-29T11:02:56;96325.50;;;23.52;58.95
49044;BME280;34860;48.066;14.124;2023-07-29T11:05:46;96321.63;;;23.49;58.87
49044;BME280;34860;48.066;14.124;2023-07-29T11:08:35;96326.31;;;23.47;58.64
49044;BME280;34860;48.066;14.124;2023-07-29T11:11:23;96330.47;;;23.46;58.97
49044;BME280;34860;48.066;14.124;2023-07-29T11:14:11;96327.63;;;23.46;58.86
49044;BME280;34860;48.066;14.124;2023-07-29T11:17:01;96322.72;;;23.46;59.05
49044;BME280;34860;48.066;14.124;2023-07-29T11:19:50;96321.94;;;23.46;58.99
49044;BME280;34860;48.066;14.124;2023-07-29T11:22:38;96326.06;;;23.45;59.00
49044;BME280;34860;48.066;14.124;2023-07-29T11:25:28;96324.00;;;23.45;58.97
49044;BME280;34860;48.066;14.124;2023-07-29T11:28:16;96309.59;;;23.43;59.05
49044;BME280;34860;48.066;14.124;2023-07-29T11:31:05;96280.00;;;23.38;59.02
49044;BME280;34860;48.066;14.124;2023-07-29T11:33:54;96281.06;;;23.35;59.19
49044;BME280;34860;48.066;14.124;2023-07-29T11:36:45;96281.13;;;23.30;59.45
49044;BME280;34860;48.066;14.124;2023-07-29T11:39:33;96285.78;;;23.27;59.58
49044;BME280;34860;48.066;14.124;2023-07-29T11:42:27;96272.16;;;23.26;59.75
49044;BME280;34860;48.066;14.124;2023-07-29T11:45:15;96274.44;;;23.27;59.65
49044;BME280;34860;48.066;14.124;2023-07-29T11:48:06;96274.94;;;23.31;59.55
49044;BME280;34860;48.066;14.124;2023-07-29T11:50:55;96260.69;;;23.37;59.89
49044;BME280;34860;48.066;14.124;2023-07-29T11:53:44;96260.84;;;23.45;59.84
49044;BME280;34860;48.066;14.124;2023-07-29T11:56:32;96261.00;;;23.52;59.92
49044;BME280;34860;48.066;14.124;2023-07-29T11:59:21;96264.00;;;23.60;59.92
49044;BME280;34860;48.066;14.124;2023-07-29T12:02:12;96260.25;;;23.71;59.96
49044;BME280;34860;48.066;14.124;2023-07-29T12:05:03;96244.91;;;23.80;59.62
49044;BME280;34860;48.066;14.124;2023-07-29T12:07:52;96243.50;;;23.92;59.94
49044;BME280;34860;48.066;14.124;2023-07-29T12:10:41;96246.59;;;24.07;59.67
49044;BME280;34860;48.066;14.124;2023-07-29T12:13:29;96236.28;;;24.23;59.63
49044;BME280;34860;48.066;14.124;2023-07-29T12:16:17;96249.91;;;24.44;59.45
49044;BME280;34860;48.066;14.124;2023-07-29T12:19:05;96234.69;;;24.60;59.16
49044;BME280;34860;48.066;14.124;2023-07-29T12:21:54;96229.69;;;24.80;58.78
49044;BME280;34860;48.066;14.124;2023-07-29T12:24:43;96218.78;;;24.97;58.32
49044;BME280;34860;48.066;14.124;2023-07-29T12:27:31;96227.97;;;25.17;58.01
49044;BME280;34860;48.066;14.124;2023-07-29T12:30:22;96225.44;;;25.40;57.78
49044;BME280;34860;48.066;14.124;2023-07-29T12:33:29;96218.31;;;25.60;56.97
49044;BME280;34860;48.066;14.124;2023-07-29T12:36:17;96221.19;;;25.81;57.29
49044;BME280;34860;48.066;14.124;2023-07-29T12:39:05;96213.06;;;25.99;57.18
49044;BME280;34860;48.066;14.124;2023-07-29T12:41:57;96201.69;;;26.20;56.54
49044;BME280;34860;48.066;14.124;2023-07-29T12:44:48;96216.16;;;26.43;56.04
49044;BME280;34860;48.066;14.124;2023-07-29T12:47:36;96208.59;;;26.67;55.74
49044;BME280;34860;48.066;14.124;2023-07-29T12:50:24;96200.19;;;26.90;55.87
49044;BME280;34860;48.066;14.124;2023-07-29T12:53:12;96212.16;;;27.17;55.58
49044;BME280;34860;48.066;14.124;2023-07-29T12:56:00;96210.03;;;27.39;55.02
49044;BME280;34860;48.066;14.124;2023-07-29T12:58:50;96206.88;;;27.58;54.65
49044;BME280;34860;48.066;14.124;2023-07-29T13:01:38;96194.94;;;27.75;54.28
49044;BME280;34860;48.066;14.124;2023-07-29T13:04:26;96202.63;;;27.87;54.09
49044;BME280;34860;48.066;14.124;2023-07-29T13:07:14;96196.19;;;27.95;54.01
49044;BME280;34860;48.066;14.124;2023-07-29T13:10:02;96189.16;;;27.96;53.80
49044;BME280;34860;48.066;14.124;2023-07-29T13:12:50;96183.00;;;27.91;53.74
49044;BME280;34860;48.066;14.124;2023-07-29T13:15:40;96172.53;;;27.86;53.60
49044;BME280;34860;48.066;14.124;2023-07-29T13:18:28;96178.22;;;27.79;53.58
49044;BME280;34860;48.066;14.124;2023-07-29T13:21:16;96191.69;;;27.70;53.38
49044;BME280;34860;48.066;14.124;2023-07-29T13:24:04;96187.09;;;27.60;53.46
49044;BME280;34860;48.066;14.124;2023-07-29T13:26:54;96199.59;;;27.49;53.63
49044;BME280;34860;48.066;14.124;2023-07-29T13:29:42;96206.44;;;27.38;53.90
49044;BME280;34860;48.066;14.124;2023-07-29T13:32:32;96216.59;;;27.26;53.40
49044;BME280;34860;48.066;14.124;2023-07-29T13:35:20;96283.84;;;27.13;53.83
49044;BME280;34860;48.066;14.124;2023-07-29T13:38:08;96308.06;;;26.99;53.86
49044;BME280;34860;48.066;14.124;2023-07-29T13:40:57;96318.09;;;26.71;53.96
49044;BME280;34860;48.066;14.124;2023-07-29T13:43:45;96330.84;;;26.22;54.11
49044;BME280;34860;48.066;14.124;2023-07-29T13:46:33;96312.63;;;25.78;54.79
49044;BME280;34860;48.066;14.124;2023-07-29T13:49:23;96282.66;;;25.36;55.09
49044;BME280;34860;48.066;14.124;2023-07-29T13:52:11;96297.84;;;24.99;55.61
49044;BME280;34860;48.066;14.124;2023-07-29T13:54:59;96274.47;;;24.60;56.23
49044;BME280;34860;48.066;14.124;2023-07-29T13:57:47;96279.66;;;24.24;56.82
49044;BME280;34860;48.066;14.124;2023-07-29T14:00:35;96270.00;;;23.94;57.13
49044;BME280;34860;48.066;14.124;2023-07-29T14:03:23;96267.53;;;23.66;57.75
49044;BME280;34860;48.066;14.124;2023-07-29T14:06:12;96258.78;;;23.45;57.69
49044;BME280;34860;48.066;14.124;2023-07-29T14:09:00;96266.47;;;23.26;58.04
49044;BME280;34860;48.066;14.124;2023-07-29T14:11:48;96259.94;;;23.12;57.94
49044;BME280;34860;48.066;14.124;2023-07-29T14:14:37;96263.88;;;23.03;58.51
49044;BME280;34860;48.066;14.124;2023-07-29T14:17:25;96264.97;;;22.94;58.26
49044;BME280;34860;48.066;14.124;2023-07-29T14:20:13;96268.94;;;22.85;58.31
49044;BME280;34860;48.066;14.124;2023-07-29T14:23:02;96256.91;;;22.79;57.96
49044;BME280;34860;48.066;14.124;2023-07-29T14:25:50;96253.03;;;22.77;58.33
49044;BME280;34860;48.066;14.124;2023-07-29T14:28:38;96254.13;;;22.74;57.99
49044;BME280;34860;48.066;14.124;2023-07-29T14:31:26;96240.22;;;22.70;58.21
49044;BME280;34860;48.066;14.124;2023-07-29T14:34:14;96237.47;;;22.64;58.18
49044;BME280;34860;48.066;14.124;2023-07-29T14:37:02;96230.56;;;22.60;58.12
49044;BME280;34860;48.066;14.124;2023-07-29T14:39:52;96225.19;;;22.56;58.26
49044;BME280;34860;48.066;14.124;2023-07-29T14:42:40;96224.69;;;22.52;58.26
49044;BME280;34860;48.066;14.124;2023-07-29T14:45:28;96229.88;;;22.48;58.28
49044;BME280;34860;48.066;14.124;2023-07-29T14:48:16;96232.25;;;22.44;58.29